Terminal Aerodrome Forecast
Issued by NWS

Home | Current Version | Previous Version | Text Only | Print | Product List | Glossary On
Versions: 1 2 3 4 5 6 7 8 9 10 11 12
154
FTUS42 KGSP 141720
TAFAND
TAF
KAND 141720Z 1418/1518 10008KT P6SM FEW070 BKN120
      TEMPO 1420/1424 OVC070
     FM150000 09006KT P6SM OVC045 PROB30 1505/1510 4SM -SNPL OVC025
     FM151000 07005KT P6SM OVC020 PROB30 1510/1514 4SM -FZRA OVC010
     FM151400 07006KT 6SM -FZRA OVC008=

USA.gov is the U.S. government's official web portal to all federal, state and local government web resources and services.